Time;durP1;ratioP1;P1;durP2;ratioP2;P2;SDS_P1;SDS_P2;PMS_P1;PMS_P2;Temp;Humidity;BMP_temperature;BMP_pressure;BME280_temperature;BME280_humidity;BME280_pressure;Samples;Min_cycle;Max_cycle;Signal;HPM_P1;HPM_P2
2022/07/28 00:00:37;;;;;;;3.83;2.60;;;;;;;13.61;99.88;93058.97;2106270;28;20477;-79
2022/07/28 00:01:38;;;;;;;5.15;2.63;;;;;;;13.59;100.00;93061.31;2123365;27;20115;-79
2022/07/28 00:02:39;;;;;;;6.53;2.65;;;;;;;13.63;100.00;93055.84;2114592;28;20568;-80
2022/07/28 00:03:40;;;;;;;5.60;2.60;;;;;;;13.58;100.00;93057.16;2094104;28;20502;-80
2022/07/28 00:04:41;;;;;;;12.38;2.88;;;;;;;13.66;100.00;93063.03;2098013;28;20024;-80
2022/07/28 00:05:42;;;;;;;5.35;2.67;;;;;;;13.67;99.89;93057.22;2107771;28;20047;-79
2022/07/28 00:06:43;;;;;;;4.88;2.60;;;;;;;13.69;99.66;93056.78;2117454;27;20077;-79
2022/07/28 00:07:44;;;;;;;4.70;2.70;;;;;;;13.68;99.53;93063.34;2121633;27;20491;-79
2022/07/28 00:08:45;;;;;;;6.97;2.80;;;;;;;13.61;100.00;93061.66;2114778;28;20031;-79
2022/07/28 00:09:46;;;;;;;6.57;2.35;;;;;;;13.57;100.00;93064.47;2114874;27;20034;-80
2022/07/28 00:10:47;;;;;;;5.95;2.88;;;;;;;13.51;100.00;93057.38;2106178;28;20046;-80
2022/07/28 00:11:48;;;;;;;5.63;3.03;;;;;;;13.51;100.00;93050.06;2114862;28;20477;-80
2022/07/28 00:12:49;;;;;;;8.98;3.05;;;;;;;13.50;100.00;93053.94;2114921;28;20849;-79
2022/07/28 00:13:50;;;;;;;5.57;2.63;;;;;;;13.51;100.00;93049.31;2114743;27;20392;-80
2022/07/28 00:14:51;;;;;;;8.20;3.13;;;;;;;13.49;100.00;93051.69;2114579;28;20070;-80
2022/07/28 00:15:52;;;;;;;6.13;2.75;;;;;;;13.50;100.00;93047.81;2109032;28;20047;-79
2022/07/28 00:16:53;;;;;;;10.25;3.00;;;;;;;13.48;100.00;93053.66;2103359;28;20513;-79
2022/07/28 00:17:54;;;;;;;4.35;2.85;;;;;;;13.46;100.00;93053.31;2098156;28;20025;-79
2022/07/28 00:18:54;;;;;;;15.35;3.15;;;;;;;13.40;100.00;93048.94;2109405;28;20036;-80
2022/07/28 00:19:55;;;;;;;5.68;2.90;;;;;;;13.43;100.00;93043.44;2106320;28;20435;-80
2022/07/28 00:20:56;;;;;;;6.80;3.10;;;;;;;13.40;100.00;93043.56;2113886;28;20114;-79
2022/07/28 00:21:58;;;;;;;10.10;2.90;;;;;;;13.35;100.00;93042.19;2106116;28;20030;-79
2022/07/28 00:22:59;;;;;;;4.30;2.67;;;;;;;13.34;100.00;93038.00;2098022;28;20493;-80
2022/07/28 00:24:00;;;;;;;6.53;2.95;;;;;;;13.31;100.00;93036.94;2101839;28;20013;-80
2022/07/28 00:25:02;;;;;;;9.15;3.60;;;;;;;13.26;100.00;93044.81;2099716;28;20032;-80
2022/07/28 00:26:03;;;;;;;6.40;2.92;;;;;;;13.21;100.00;93039.94;2106049;28;20027;-80
2022/07/28 00:27:08;;;;;;;4.10;2.83;;;;;;;13.21;100.00;93037.25;2097855;28;20488;-79
2022/07/28 00:28:08;;;;;;;8.30;2.95;;;;;;;13.09;100.00;93044.16;2115092;28;20024;-79
2022/07/28 00:29:09;;;;;;;7.72;3.10;;;;;;;13.07;100.00;93039.22;2113852;28;20022;-79
2022/07/28 00:30:11;;;;;;;11.50;3.20;;;;;;;13.02;100.00;93039.78;2097818;28;20048;-79
2022/07/28 00:31:12;;;;;;;10.75;2.85;;;;;;;13.02;100.00;93036.34;2106348;28;20843;-80
2022/07/28 00:32:13;;;;;;;9.70;4.00;;;;;;;12.97;100.00;93031.53;2100907;28;20031;-79
2022/07/28 00:33:14;;;;;;;5.45;3.03;;;;;;;12.88;100.00;93040.22;2106282;28;20111;-79
2022/07/28 00:34:15;;;;;;;4.38;2.78;;;;;;;12.79;100.00;93037.47;2106115;28;20095;-80
2022/07/28 00:35:16;;;;;;;11.15;3.42;;;;;;;12.75;100.00;93037.56;2114641;27;20076;-79
2022/07/28 00:36:17;;;;;;;10.63;3.22;;;;;;;12.71;100.00;93033.50;2114315;28;20023;-80
2022/07/28 00:37:18;;;;;;;6.57;2.97;;;;;;;12.79;100.00;93035.53;2103892;28;20111;-79
2022/07/28 00:38:19;;;;;;;6.38;3.05;;;;;;;12.74;100.00;93038.00;2109548;28;20419;-80
2022/07/28 00:39:20;;;;;;;6.53;2.80;;;;;;;12.65;100.00;93033.28;2123305;27;20117;-79
2022/07/28 00:40:21;;;;;;;6.80;3.00;;;;;;;12.56;100.00;93035.88;2097909;28;20032;-80
2022/07/28 00:41:22;;;;;;;5.20;2.90;;;;;;;12.49;100.00;93031.47;2089627;28;20031;-80
2022/07/28 00:42:23;;;;;;;7.43;3.13;;;;;;;12.53;100.00;93037.47;2095787;28;20052;-79
2022/07/28 00:43:23;;;;;;;6.70;2.92;;;;;;;12.46;100.00;93035.00;2114780;28;20392;-79
2022/07/28 00:44:24;;;;;;;6.60;2.85;;;;;;;12.45;100.00;93030.81;2106212;28;20413;-80
2022/07/28 00:45:25;;;;;;;6.45;3.30;;;;;;;12.36;100.00;93036.06;2091641;28;20025;-80
2022/07/28 00:46:26;;;;;;;6.13;3.08;;;;;;;12.31;100.00;93031.25;2106116;28;20027;-80
2022/07/28 00:47:29;;;;;;;8.75;3.25;;;;;;;12.38;100.00;93030.28;2106223;28;20085;-80
2022/07/28 00:48:31;;;;;;;9.70;3.25;;;;;;;12.36;100.00;93028.03;2113246;28;20023;-80
2022/07/28 00:49:32;;;;;;;4.57;2.97;;;;;;;12.31;100.00;93028.56;2114540;28;20521;-80
2022/07/28 00:50:33;;;;;;;5.65;2.90;;;;;;;12.32;100.00;93022.78;2104607;28;20086;-79
2022/07/28 00:51:34;;;;;;;5.68;2.70;;;;;;;12.23;100.00;93029.97;2121777;27;20051;-80
2022/07/28 00:52:35;;;;;;;5.63;3.33;;;;;;;12.30;100.00;93029.75;2104356;28;20019;-80
2022/07/28 00:53:37;;;;;;;8.55;3.60;;;;;;;12.27;100.00;93027.94;2093069;28;20016;-79
2022/07/28 00:54:39;;;;;;;5.35;3.22;;;;;;;12.35;100.00;93019.25;2106641;27;20020;-80
2022/07/28 00:55:40;;;;;;;10.25;3.10;;;;;;;12.35;100.00;93019.25;2114428;28;20118;-80
2022/07/28 00:56:42;;;;;;;7.15;3.50;;;;;;;12.38;100.00;93025.69;2114555;28;20395;-80
2022/07/28 00:57:43;;;;;;;5.07;2.97;;;;;;;12.44;100.00;93020.53;2111564;28;20047;-80
2022/07/28 00:58:45;;;;;;;7.00;3.05;;;;;;;12.31;100.00;93017.84;2122874;27;20026;-79
2022/07/28 00:59:46;;;;;;;7.03;3.30;;;;;;;12.25;100.00;93022.25;2114439;28;20060;-79
2022/07/28 01:00:47;;;;;;;6.47;3.35;;;;;;;12.27;100.00;93014.53;2119179;27;20060;-79
2022/07/28 01:01:48;;;;;;;6.38;3.17;;;;;;;12.28;100.00;93018.69;2114420;28;20110;-80
2022/07/28 01:02:49;;;;;;;7.85;3.42;;;;;;;12.26;100.00;93018.38;2091274;28;20056;-80
2022/07/28 01:04:00;;;;;;;6.18;3.15;;;;;;;12.20;100.00;93020.09;2089628;28;20732;-80
2022/07/28 01:05:01;;;;;;;7.65;3.22;;;;;;;12.16;100.00;93020.22;2100253;28;20023;-80
2022/07/28 01:06:15;;;;;;;6.55;3.10;;;;;;;12.26;100.00;93013.03;2105883;28;20106;-80
2022/07/28 01:07:28;;;;;;;13.20;3.40;;;;;;;12.20;100.00;93020.09;2100723;28;20058;-80
2022/07/28 01:08:47;;;;;;;5.97;3.40;;;;;;;12.14;100.00;93014.50;2107921;28;20016;-79
2022/07/28 01:10:20;;;;;;;3.92;2.60;;;;;;;12.20;100.00;93012.03;2102679;28;20013;-80
2022/07/28 01:11:31;;;;;;;4.82;2.90;;;;;;;12.27;100.00;93017.94;2083420;28;20451;-79
2022/07/28 01:12:55;;;;;;;7.18;3.20;;;;;;;12.23;100.00;93009.25;2097300;28;20048;-79
2022/07/28 01:14:14;;;;;;;7.47;3.17;;;;;;;12.30;100.00;93011.00;2086880;28;20077;-79
2022/07/28 01:15:31;;;;;;;4.03;2.92;;;;;;;12.18;100.00;93009.81;2115633;27;20134;-80
2022/07/28 01:16:33;;;;;;;6.97;2.92;;;;;;;12.18;100.00;93009.81;2102053;28;20036;-79
2022/07/28 01:17:52;;;;;;;7.97;3.47;;;;;;;12.21;100.00;93006.28;2097493;28;20021;-80
2022/07/28 01:19:00;;;;;;;4.82;3.05;;;;;;;12.22;100.00;93001.66;2117035;27;20024;-80
2022/07/28 01:20:05;;;;;;;3.47;3.17;;;;;;;12.23;100.00;93009.25;2106566;28;20608;-80
2022/07/28 01:21:15;;;;;;;4.40;3.20;;;;;;;12.17;100.00;93011.00;2106914;27;20024;-80
2022/07/28 01:22:19;;;;;;;;;;;;;;;12.20;100.00;93009.38;2112531;28;20503;-80
2022/07/28 01:23:29;;;;;;;6.00;3.22;;;;;;;12.21;100.00;93008.97;2106495;28;19969;-80
2022/07/28 01:24:39;;;;;;;4.78;3.20;;;;;;;12.22;100.00;93012.38;2109358;27;20042;-79
2022/07/28 01:26:08;;;;;;;8.65;3.35;;;;;;;12.19;100.00;93005.19;2115871;27;20024;-80
2022/07/28 01:27:21;;;;;;;7.85;3.75;;;;;;;12.15;100.00;93002.63;2103417;28;20054;-80
2022/07/28 01:28:41;;;;;;;5.53;3.08;;;;;;;12.12;100.00;93008.84;2100350;28;20511;-79
2022/07/28 01:30:03;;;;;;;4.90;3.25;;;;;;;12.08;100.00;93005.53;2109470;27;20028;-80
2022/07/28 01:31:07;;;;;;;6.68;3.80;;;;;;;12.13;100.00;93001.56;2106211;28;20105;-80
2022/07/28 01:32:19;;;;;;;8.25;3.72;;;;;;;12.04;100.00;93002.94;2106429;27;20077;-79
2022/07/28 01:33:27;;;;;;;6.85;3.35;;;;;;;11.97;100.00;92999.72;2115491;28;20027;-80
2022/07/28 01:34:38;;;;;;;11.50;4.63;;;;;;;11.89;100.00;93006.44;2114982;27;20038;-79
2022/07/28 01:35:44;;;;;;;5.07;2.90;;;;;;;11.91;100.00;92999.50;2106949;28;20020;-79
2022/07/28 01:36:54;;;;;;;9.00;3.55;;;;;;;11.90;100.00;93008.72;2097688;28;20020;-79
2022/07/28 01:37:59;;;;;;;6.18;3.72;;;;;;;11.87;100.00;93009.56;2111918;27;20031;-79
2022/07/28 01:39:01;;;;;;;8.98;3.63;;;;;;;11.83;100.00;92998.94;2122158;27;20019;-79
2022/07/28 01:40:06;;;;;;;9.27;3.60;;;;;;;11.79;100.00;93000.19;2113850;28;20037;-79
2022/07/28 01:41:11;;;;;;;6.95;3.17;;;;;;;11.81;100.00;92990.56;2121600;27;20026;-79
2022/07/28 01:42:14;;;;;;;4.53;3.25;;;;;;;11.71;100.00;93001.56;2113820;28;20487;-79
2022/07/28 01:43:19;;;;;;;7.95;3.58;;;;;;;11.71;100.00;93001.56;2106124;28;20121;-80
2022/07/28 01:44:23;;;;;;;7.00;2.70;;;;;;;11.72;100.00;93000.38;2106075;28;20052;-79
2022/07/28 01:45:36;;;;;;;4.63;4.07;;;;;;;11.61;100.00;92998.00;2103831;28;20027;-79
2022/07/28 01:46:39;;;;;;;6.65;3.60;;;;;;;11.65;100.00;92997.91;2104878;28;20447;-79
2022/07/28 01:47:44;;;;;;;11.27;3.75;;;;;;;11.58;100.00;93004.94;2097877;28;20024;-79
2022/07/28 01:48:46;;;;;;;9.50;3.13;;;;;;;11.65;100.00;93000.59;2106432;28;20028;-79
2022/07/28 01:49:49;;;;;;;5.45;3.22;;;;;;;11.66;100.00;93010.13;2113904;27;20023;-79
2022/07/28 01:50:53;;;;;;;8.85;3.47;;;;;;;11.60;100.00;93002.63;2105792;28;20028;-79
2022/07/28 01:51:56;;;;;;;9.95;3.53;;;;;;;11.64;100.00;93001.78;2106306;28;20366;-79
2022/07/28 01:52:57;;;;;;;8.98;3.80;;;;;;;11.47;100.00;92999.16;2114023;28;20038;-79
2022/07/28 01:53:59;;;;;;;5.22;3.58;;;;;;;11.53;100.00;92994.78;2097900;28;20150;-79
2022/07/28 01:55:01;;;;;;;9.05;3.75;;;;;;;11.51;100.00;92996.38;2108279;28;20028;-79
2022/07/28 01:56:04;;;;;;;5.72;3.00;;;;;;;11.49;100.00;92996.03;2105678;28;20085;-79
2022/07/28 01:57:09;;;;;;;7.28;3.88;;;;;;;11.46;100.00;92994.22;2105223;28;20035;-79
2022/07/28 01:58:12;;;;;;;4.47;3.15;;;;;;;11.45;100.00;92996.13;2097933;28;20196;-80
2022/07/28 01:59:16;;;;;;;5.60;3.40;;;;;;;11.43;100.00;92998.50;2106112;28;20054;-79
2022/07/28 02:00:17;;;;;;;7.38;4.25;;;;;;;11.39;100.00;93000.50;2105478;28;20027;-79
2022/07/28 02:01:20;;;;;;;6.22;3.50;;;;;;;11.44;100.00;92993.88;2105737;28;20028;-79
2022/07/28 02:02:22;;;;;;;3.72;3.40;;;;;;;11.36;100.00;92996.00;2114060;28;20023;-79
2022/07/28 02:03:26;;;;;;;6.65;3.58;;;;;;;11.31;100.00;93001.88;2113771;27;20064;-79
2022/07/28 02:04:29;;;;;;;6.90;3.53;;;;;;;11.16;100.00;92990.06;2113471;28;20118;-79
2022/07/28 02:05:33;;;;;;;9.95;3.75;;;;;;;11.18;100.00;92995.72;2100321;28;20025;-79
2022/07/28 02:06:47;;;;;;;11.07;3.97;;;;;;;11.15;100.00;92993.88;2100804;27;20052;-79
2022/07/28 02:07:50;;;;;;;6.72;3.75;;;;;;;11.13;100.00;92996.97;2107152;28;20039;-79
2022/07/28 02:08:51;;;;;;;5.65;3.50;;;;;;;11.06;100.00;92997.16;2103595;27;20119;-79
2022/07/28 02:09:55;;;;;;;3.63;3.17;;;;;;;11.04;100.00;92994.91;2105477;28;20437;-79
2022/07/28 02:12:18;;;;;;;10.75;3.95;;;;;;;11.20;100.00;92996.06;2107494;27;20061;-79
2022/07/28 02:13:19;;;;;;;5.97;3.42;;;;;;;11.07;100.00;92999.44;2105489;28;20024;-80
2022/07/28 02:14:24;;;;;;;6.75;3.70;;;;;;;11.14;100.00;92997.72;2099056;28;20071;-80
2022/07/28 02:15:27;;;;;;;6.90;3.80;;;;;;;11.09;100.00;92991.72;2106593;28;20545;-80
2022/07/28 02:16:29;;;;;;;4.85;3.55;;;;;;;11.08;100.00;92989.47;2113962;28;20020;-79
2022/07/28 02:17:33;;;;;;;4.80;2.90;;;;;;;11.09;100.00;92989.03;2112504;28;20019;-80
2022/07/28 02:18:36;;;;;;;8.02;3.85;;;;;;;11.06;100.00;92989.13;2105517;28;20073;-79
2022/07/28 02:19:39;;;;;;;5.93;3.85;;;;;;;11.02;100.00;92983.91;2105787;28;20454;-80
2022/07/28 02:20:40;;;;;;;8.82;3.58;;;;;;;11.04;100.00;92986.88;2111884;28;20048;-79
2022/07/28 02:21:43;;;;;;;5.68;3.72;;;;;;;10.97;100.00;92975.63;2117752;27;20529;-79
2022/07/28 02:22:45;;;;;;;4.13;3.60;;;;;;;10.97;100.00;92975.63;2112526;28;20031;-79
2022/07/28 02:23:47;;;;;;;9.88;3.72;;;;;;;10.95;100.00;92981.38;2105221;28;20031;-79
2022/07/28 02:24:49;;;;;;;6.10;3.45;;;;;;;10.99;100.00;92976.72;2118984;27;20096;-79
2022/07/28 02:25:52;;;;;;;7.28;3.53;;;;;;;10.90;100.00;92973.13;2117912;27;20794;-79
2022/07/28 02:26:59;;;;;;;6.80;3.33;;;;;;;10.98;100.00;92979.81;2105017;28;20027;-79
2022/07/28 02:28:05;;;;;;;5.05;3.60;;;;;;;10.88;100.00;92980.81;2118183;27;20480;-79
2022/07/28 02:29:11;;;;;;;6.88;3.90;;;;;;;10.92;100.00;92971.53;2105791;28;20019;-79
2022/07/28 02:30:58;;;;;;;6.20;4.18;;;;;;;10.90;100.00;92976.56;2105583;28;20489;-79
2022/07/28 02:32:38;;;;;;;8.68;3.90;;;;;;;10.98;100.00;92975.22;2097316;28;20511;-79
2022/07/28 02:33:41;;;;;;;5.20;3.30;;;;;;;10.94;100.00;92974.53;2094746;28;20023;-79
2022/07/28 02:34:43;;;;;;;8.60;3.83;;;;;;;10.82;100.00;92969.88;2110933;28;20047;-79
2022/07/28 02:36:14;;;;;;;6.35;3.80;;;;;;;10.90;100.00;92968.53;2107579;28;20460;-79
2022/07/28 02:37:17;;;;;;;6.22;3.75;;;;;;;10.74;100.00;92974.66;2114317;28;20027;-79
2022/07/28 02:38:26;;;;;;;5.20;3.72;;;;;;;10.72;100.00;92974.34;2114034;28;20472;-79
2022/07/28 02:39:33;;;;;;;5.95;3.50;;;;;;;10.67;100.00;92976.75;2111016;28;20016;-79
2022/07/28 02:40:37;;;;;;;7.63;3.42;;;;;;;10.80;100.00;92966.88;2105946;28;20026;-79
2022/07/28 02:41:41;;;;;;;8.80;3.80;;;;;;;10.79;100.00;92968.78;2113960;28;20019;-79
2022/07/28 02:42:46;;;;;;;7.35;3.75;;;;;;;10.68;100.00;92975.59;2113955;28;20086;-79
2022/07/28 02:43:50;;;;;;;7.47;3.95;;;;;;;10.63;100.00;92970.75;2114446;28;20076;-79
2022/07/28 02:44:59;;;;;;;4.57;3.58;;;;;;;10.72;100.00;92968.22;2104992;28;20496;-79
2022/07/28 02:46:09;;;;;;;6.72;3.60;;;;;;;10.71;100.00;92964.03;2097719;28;20024;-79
2022/07/28 02:47:15;;;;;;;7.30;3.85;;;;;;;10.65;100.00;92965.72;2115813;27;20031;-79
2022/07/28 02:48:20;;;;;;;7.78;4.07;;;;;;;10.79;100.00;92966.13;2113838;28;20515;-79
2022/07/28 02:49:31;;;;;;;10.88;3.88;;;;;;;10.74;100.00;92966.63;2102120;28;20114;-79
2022/07/28 02:50:32;;;;;;;7.90;4.25;;;;;;;10.52;100.00;92958.38;2107791;28;20507;-79
2022/07/28 02:51:33;;;;;;;7.03;4.07;;;;;;;10.51;100.00;92964.16;2096842;28;20427;-79
2022/07/28 02:52:35;;;;;;;4.22;3.65;;;;;;;10.55;100.00;92965.56;2103683;28;20019;-79
2022/07/28 02:53:37;;;;;;;7.93;4.13;;;;;;;10.61;100.00;92962.38;2113619;28;20118;-79
2022/07/28 02:54:40;;;;;;;4.68;3.85;;;;;;;10.65;100.00;92965.72;2113642;28;20019;-79
2022/07/28 02:55:42;;;;;;;7.25;3.90;;;;;;;10.54;100.00;92961.41;2104508;28;20028;-79
2022/07/28 02:56:46;;;;;;;9.60;4.05;;;;;;;10.57;100.00;92959.78;2097137;28;20034;-79
2022/07/28 02:57:48;;;;;;;6.07;3.83;;;;;;;10.62;100.00;92953.19;2107747;28;20469;-79
2022/07/28 02:58:50;;;;;;;5.50;3.80;;;;;;;10.63;100.00;92960.06;2102651;28;20085;-79
2022/07/28 02:59:52;;;;;;;5.40;3.80;;;;;;;10.54;100.00;92957.97;2105265;28;20027;-79
2022/07/28 03:00:55;;;;;;;4.57;3.90;;;;;;;10.56;100.00;92960.97;2113487;28;20059;-79
2022/07/28 03:01:57;;;;;;;6.65;4.00;;;;;;;10.55;100.00;92962.16;2114017;28;20028;-79
2022/07/28 03:02:59;;;;;;;8.23;4.05;;;;;;;10.50;100.00;92966.06;2105315;28;20042;-79
2022/07/28 03:04:01;;;;;;;7.30;4.00;;;;;;;10.47;100.00;92964.22;2112319;28;20110;-79
2022/07/28 03:05:03;;;;;;;8.23;4.13;;;;;;;10.51;100.00;92964.91;2113640;28;20015;-79
2022/07/28 03:06:05;;;;;;;4.00;3.70;;;;;;;10.52;100.00;92962.97;2115867;28;20072;-79
2022/07/28 03:07:06;;;;;;;5.10;3.40;;;;;;;10.51;100.00;92964.91;2096909;28;20025;-79
2022/07/28 03:08:08;;;;;;;4.85;3.70;;;;;;;10.49;100.00;92961.13;2105282;28;20408;-79
2022/07/28 03:09:10;;;;;;;6.47;3.80;;;;;;;10.31;100.00;92961.56;2123242;27;20062;-79
2022/07/28 03:10:20;;;;;;;13.13;3.88;;;;;;;10.42;100.00;92967.41;2123596;27;20555;-79
2022/07/28 03:11:21;;;;;;;6.60;3.72;;;;;;;10.50;100.00;92965.31;2100595;28;20481;-79
2022/07/28 03:12:22;;;;;;;6.65;3.90;;;;;;;10.44;100.00;92965.06;2110459;28;20024;-79
2022/07/28 03:13:23;;;;;;;4.53;3.72;;;;;;;10.42;100.00;92961.31;2114425;28;20050;-79
2022/07/28 03:14:24;;;;;;;5.07;4.05;;;;;;;10.42;100.00;92966.66;2099271;28;20060;-79
2022/07/28 03:15:25;;;;;;;10.27;4.13;;;;;;;10.29;100.00;92969.25;2098439;28;20024;-79
2022/07/28 03:16:26;;;;;;;7.78;3.70;;;;;;;10.21;100.00;92968.63;2103005;28;20488;-79
2022/07/28 03:17:27;;;;;;;8.15;3.85;;;;;;;10.25;100.00;92972.00;2105009;28;20020;-78
2022/07/28 03:18:28;;;;;;;12.20;3.78;;;;;;;10.29;100.00;92970.00;2115252;28;20020;-79
2022/07/28 03:19:29;;;;;;;7.45;3.78;;;;;;;10.34;100.00;92971.41;2090113;28;20024;-78
2022/07/28 03:20:30;;;;;;;6.97;3.63;;;;;;;10.29;100.00;92970.00;2088954;28;20116;-78
2022/07/28 03:21:31;;;;;;;4.95;4.00;;;;;;;10.18;100.00;92979.38;2090201;28;20017;-79
2022/07/28 03:22:32;;;;;;;7.90;3.90;;;;;;;10.28;100.00;92968.50;2089936;28;20039;-78
2022/07/28 03:23:38;;;;;;;8.82;4.28;;;;;;;10.28;100.00;92976.50;2106836;28;20069;-79
2022/07/28 03:24:43;;;;;;;7.60;4.10;;;;;;;10.32;100.00;92973.75;2114868;28;20031;-79
2022/07/28 03:25:49;;;;;;;8.48;4.60;;;;;;;10.20;100.00;92972.47;2114464;28;20484;-79
2022/07/28 03:26:57;;;;;;;5.72;3.72;;;;;;;10.21;100.00;92973.22;2111897;27;20032;-79
2022/07/28 03:28:01;;;;;;;9.63;4.47;;;;;;;10.23;100.00;92973.56;2108800;28;20134;-79
2022/07/28 03:29:02;;;;;;;6.45;4.15;;;;;;;10.25;100.00;92973.91;2106636;28;20016;-79
2022/07/28 03:30:18;;;;;;;5.38;4.25;;;;;;;10.20;100.00;92979.72;2102330;28;20020;-79
2022/07/28 03:31:19;;;;;;;5.57;3.90;;;;;;;10.16;100.00;92985.16;2096779;28;20028;-78
2022/07/28 03:32:24;;;;;;;6.82;4.20;;;;;;;10.22;100.00;92972.78;2096427;28;20505;-78
2022/07/28 03:33:25;;;;;;;7.35;4.00;;;;;;;10.08;100.00;92987.22;2114087;27;20032;-79
2022/07/28 03:34:27;;;;;;;9.10;4.45;;;;;;;10.02;100.00;92980.88;2113190;28;20038;-79
2022/07/28 03:35:31;;;;;;;8.57;4.45;;;;;;;10.01;100.00;92983.97;2105238;28;20028;-79
2022/07/28 03:36:43;;;;;;;6.78;4.15;;;;;;;10.09;100.00;92983.38;2086234;28;20485;-79
2022/07/28 03:37:54;;;;;;;6.00;4.00;;;;;;;10.14;100.00;92990.16;2096730;28;20033;-79
2022/07/28 03:39:02;;;;;;;8.88;3.75;;;;;;;10.14;100.00;92989.38;2097737;28;20499;-79
2022/07/28 03:40:08;;;;;;;6.63;4.25;;;;;;;10.09;100.00;92980.69;2098637;28;20028;-80
2022/07/28 03:41:10;;;;;;;8.65;4.30;;;;;;;10.17;100.00;92988.56;2112671;28;20027;-80
2022/07/28 03:42:11;;;;;;;5.90;3.70;;;;;;;10.11;100.00;92988.31;2104867;28;20385;-80
2022/07/28 03:43:15;;;;;;;7.25;4.18;;;;;;;10.12;100.00;92989.81;2093920;28;20029;-80
2022/07/28 03:44:16;;;;;;;4.78;3.90;;;;;;;10.15;100.00;92990.91;2112659;28;20027;-79
2022/07/28 03:45:18;;;;;;;7.25;4.95;;;;;;;10.14;100.00;92984.81;2113173;28;20399;-79
2022/07/28 03:46:20;;;;;;;8.05;4.85;;;;;;;10.11;100.00;92993.66;2104666;28;20125;-80
2022/07/28 03:47:24;;;;;;;8.18;5.05;;;;;;;10.04;100.00;92989.22;2089007;28;20032;-79
2022/07/28 03:48:32;;;;;;;9.65;4.80;;;;;;;10.07;100.00;92993.72;2096670;28;20025;-80
2022/07/28 03:49:33;;;;;;;8.93;4.18;;;;;;;10.02;100.00;92996.91;2096472;28;20016;-80
2022/07/28 03:50:34;;;;;;;6.72;3.90;;;;;;;9.99;100.00;92981.69;2096801;28;20067;-79
2022/07/28 03:51:35;;;;;;;7.05;3.80;;;;;;;9.87;100.00;92987.66;2103342;28;20027;-79
2022/07/28 03:52:36;;;;;;;8.88;4.55;;;;;;;9.94;100.00;92989.44;2105157;28;20024;-80
2022/07/28 03:53:37;;;;;;;5.35;4.13;;;;;;;9.89;100.00;92982.69;2092810;28;20032;-79
2022/07/28 03:54:38;;;;;;;11.50;4.20;;;;;;;9.91;100.00;92985.69;2100908;28;20036;-79
2022/07/28 03:55:39;;;;;;;7.07;3.85;;;;;;;9.88;100.00;92985.75;2109348;28;20028;-79
2022/07/28 03:56:40;;;;;;;7.13;4.35;;;;;;;9.91;100.00;92990.28;2103825;28;20028;-79
2022/07/28 03:57:41;;;;;;;8.25;3.95;;;;;;;9.95;100.00;92988.28;2104671;28;20448;-79
2022/07/28 03:58:42;;;;;;;9.95;3.97;;;;;;;9.89;100.00;92984.59;2096381;28;20037;-79
2022/07/28 03:59:43;;;;;;;6.47;3.78;;;;;;;9.91;100.00;92992.94;2096138;28;20025;-79
2022/07/28 04:00:45;;;;;;;7.85;4.20;;;;;;;9.94;100.00;92987.53;2095375;28;20406;-79
2022/07/28 04:01:46;;;;;;;4.32;3.72;;;;;;;10.03;100.00;92993.06;2096534;28;20564;-79
2022/07/28 04:02:46;;;;;;;4.53;3.63;;;;;;;10.01;100.00;92992.72;2096432;28;20036;-79
2022/07/28 04:03:47;;;;;;;6.38;3.55;;;;;;;9.82;100.00;92990.84;2104710;28;20480;-79
2022/07/28 04:04:48;;;;;;;7.13;3.90;;;;;;;9.86;100.00;92996.84;2095577;28;20625;-79
2022/07/28 04:05:49;;;;;;;7.03;3.90;;;;;;;9.90;100.00;92994.84;2095398;28;20036;-79
2022/07/28 04:06:50;;;;;;;10.60;4.47;;;;;;;9.82;100.00;92996.91;2104170;28;20050;-80
2022/07/28 04:07:51;;;;;;;10.35;3.88;;;;;;;9.83;100.00;92992.34;2096445;28;20123;-79
2022/07/28 04:08:52;;;;;;;5.43;3.55;;;;;;;9.90;100.00;92994.84;2096594;28;20557;-79
2022/07/28 04:09:53;;;;;;;9.52;3.92;;;;;;;9.84;100.00;92997.28;2088081;28;20040;-79
2022/07/28 04:10:54;;;;;;;5.47;3.72;;;;;;;9.77;100.00;92991.31;2088226;28;20029;-79
2022/07/28 04:11:55;;;;;;;9.43;3.80;;;;;;;9.88;100.00;92985.75;2087032;28;20043;-79
2022/07/28 04:12:57;;;;;;;6.07;4.07;;;;;;;9.83;100.00;92987.78;2103642;28;20098;-79
2022/07/28 04:13:58;;;;;;;12.70;4.07;;;;;;;9.88;100.00;92988.41;2113005;28;20027;-79
2022/07/28 04:14:59;;;;;;;4.95;3.35;;;;;;;9.82;100.00;92986.25;2111745;27;20082;-79
2022/07/28 04:16:00;;;;;;;4.65;3.72;;;;;;;9.79;100.00;92992.44;2100095;28;20035;-79
2022/07/28 04:17:01;;;;;;;6.80;4.13;;;;;;;9.72;100.00;92991.81;2112526;28;20434;-79
2022/07/28 04:18:02;;;;;;;8.18;4.00;;;;;;;9.70;100.00;92986.91;2112602;28;20105;-79
2022/07/28 04:19:03;;;;;;;6.43;3.85;;;;;;;9.83;100.00;92987.78;2104347;28;20028;-79
2022/07/28 04:20:04;;;;;;;4.53;3.67;;;;;;;9.88;100.00;92981.19;2103876;28;20028;-79
2022/07/28 04:21:06;;;;;;;5.72;3.67;;;;;;;9.89;100.00;92992.63;2096244;28;20028;-79
2022/07/28 04:22:07;;;;;;;5.25;3.53;;;;;;;9.94;100.00;92998.22;2096862;28;20169;-79
2022/07/28 04:23:08;;;;;;;6.95;4.18;;;;;;;9.92;100.00;92997.88;2105713;28;20512;-79
2022/07/28 04:24:09;;;;;;;5.18;3.70;;;;;;;9.95;100.00;92990.94;2100360;28;20085;-79
2022/07/28 04:25:11;;;;;;;5.43;3.80;;;;;;;9.94;100.00;92992.13;2101869;28;20063;-79
2022/07/28 04:26:12;;;;;;;8.43;4.43;;;;;;;9.91;100.00;92991.03;2097502;28;20056;-79
2022/07/28 04:27:14;;;;;;;10.50;4.28;;;;;;;9.95;100.00;92994.38;2105869;28;20397;-79
2022/07/28 04:28:15;;;;;;;6.72;4.03;;;;;;;9.94;100.00;92997.47;2109620;28;20024;-79
2022/07/28 04:29:17;;;;;;;7.82;4.03;;;;;;;9.90;100.00;92989.53;2105626;28;20020;-79
2022/07/28 04:30:20;;;;;;;5.47;3.80;;;;;;;9.89;100.00;92995.28;2107900;28;20062;-79
2022/07/28 04:31:21;;;;;;;7.75;4.15;;;;;;;9.92;100.00;92997.88;2106181;28;20023;-79
2022/07/28 04:32:22;;;;;;;5.10;3.90;;;;;;;9.94;100.00;92987.53;2104758;28;20039;-79
2022/07/28 04:33:23;;;;;;;8.05;4.10;;;;;;;9.94;100.00;92989.44;2102628;28;20020;-79
2022/07/28 04:34:24;;;;;;;9.98;3.92;;;;;;;10.00;100.00;92988.53;2113226;27;20071;-79
2022/07/28 04:35:41;;;;;;;9.20;4.43;;;;;;;10.00;100.00;92993.88;2104417;28;20101;-79
2022/07/28 04:36:42;;;;;;;10.05;4.10;;;;;;;10.03;100.00;92993.06;2097790;28;20438;-79
2022/07/28 04:37:44;;;;;;;4.57;4.10;;;;;;;10.09;100.00;92986.03;2104642;28;20031;-79
2022/07/28 04:38:45;;;;;;;11.75;4.32;;;;;;;9.98;100.00;92984.78;2112191;27;20562;-79
2022/07/28 04:39:46;;;;;;;4.78;4.10;;;;;;;10.00;100.00;92979.78;2121312;27;20034;-79
2022/07/28 04:40:47;;;;;;;7.20;4.30;;;;;;;10.05;100.00;92984.63;2112157;28;20115;-79
2022/07/28 04:41:49;;;;;;;5.70;4.40;;;;;;;10.09;100.00;92990.63;2103519;28;20073;-79
2022/07/28 04:42:50;;;;;;;7.93;3.92;;;;;;;10.15;100.00;92986.31;2097077;28;20947;-79
2022/07/28 04:43:51;;;;;;;7.57;4.28;;;;;;;10.16;100.00;92971.03;2104251;28;20028;-79
2022/07/28 04:44:52;;;;;;;8.38;3.88;;;;;;;10.09;100.00;92982.63;2104054;28;20031;-79
2022/07/28 04:45:53;;;;;;;5.82;3.80;;;;;;;10.15;100.00;92983.66;2104391;28;20032;-79
2022/07/28 04:46:54;;;;;;;12.40;4.45;;;;;;;10.21;100.00;92981.97;2111416;28;20028;-79
2022/07/28 04:47:55;;;;;;;7.95;4.28;;;;;;;10.18;100.00;92982.06;2112751;27;20027;-79
2022/07/28 04:48:56;;;;;;;6.85;3.70;;;;;;;10.28;100.00;92979.19;2112304;28;20525;-79
2022/07/28 04:49:57;;;;;;;9.00;4.10;;;;;;;10.31;100.00;92980.25;2112602;27;20081;-79
2022/07/28 04:50:58;;;;;;;7.18;3.65;;;;;;;10.29;100.00;92990.63;2111953;27;20152;-79
2022/07/28 04:51:59;;;;;;;9.07;3.95;;;;;;;10.35;100.00;92980.91;2094893;28;20021;-80
2022/07/28 04:53:00;;;;;;;5.07;4.18;;;;;;;10.46;100.00;92978.03;2095225;28;20032;-79
2022/07/28 04:54:02;;;;;;;4.90;3.53;;;;;;;10.49;100.00;92982.50;2103628;28;20075;-79
2022/07/28 04:55:04;;;;;;;5.18;3.90;;;;;;;10.50;100.00;92981.38;2107087;28;20024;-79
2022/07/28 04:56:05;;;;;;;6.88;4.10;;;;;;;10.55;100.00;92981.59;2103620;28;20028;-79
2022/07/28 04:57:07;;;;;;;5.25;4.00;;;;;;;10.55;100.00;92975.50;2104393;28;20118;-79
2022/07/28 04:58:07;;;;;;;6.85;3.97;;;;;;;10.56;100.00;92975.09;2096596;28;20024;-80
2022/07/28 04:59:08;;;;;;;4.32;3.65;;;;;;;10.64;100.00;92978.34;2112622;27;20027;-79